sensor_id;sensor_type;location;lat;lon;timestamp;pressure;altitude;pressure_sealevel;temperature;humidity
67803;BME280;54601;51.378;-1.342;2022-11-15T00:00:02;99001.50;;;18.33;39.92
67803;BME280;54601;51.378;-1.342;2022-11-15T00:02:27;99002.17;;;18.75;39.27
67803;BME280;54601;51.378;-1.342;2022-11-15T00:04:52;98999.81;;;18.94;39.05
67803;BME280;54601;51.378;-1.342;2022-11-15T00:07:17;98990.08;;;18.50;39.39
67803;BME280;54601;51.378;-1.342;2022-11-15T00:09:43;98986.52;;;18.64;39.52
67803;BME280;54601;51.378;-1.342;2022-11-15T00:12:08;98983.53;;;18.98;38.79
67803;BME280;54601;51.378;-1.342;2022-11-15T00:14:33;98978.49;;;18.75;39.24
67803;BME280;54601;51.378;-1.342;2022-11-15T00:16:58;98973.67;;;18.82;39.14
67803;BME280;54601;51.378;-1.342;2022-11-15T00:19:23;98961.82;;;18.79;39.10
67803;BME280;54601;51.378;-1.342;2022-11-15T00:21:49;98954.96;;;18.80;39.08
67803;BME280;54601;51.378;-1.342;2022-11-15T00:24:14;98957.06;;;19.03;39.11
67803;BME280;54601;51.378;-1.342;2022-11-15T00:26:39;98951.11;;;18.76;39.18
67803;BME280;54601;51.378;-1.342;2022-11-15T00:29:04;98945.34;;;18.72;39.32
67803;BME280;54601;51.378;-1.342;2022-11-15T00:31:29;98941.48;;;18.81;39.13
67803;BME280;54601;51.378;-1.342;2022-11-15T00:33:55;98931.52;;;18.74;39.29
67803;BME280;54601;51.378;-1.342;2022-11-15T00:36:20;98921.26;;;18.77;39.13
67803;BME280;54601;51.378;-1.342;2022-11-15T00:38:45;98917.45;;;18.63;39.16
67803;BME280;54601;51.378;-1.342;2022-11-15T00:41:10;98911.14;;;18.83;39.13
67803;BME280;54601;51.378;-1.342;2022-11-15T00:43:36;98899.86;;;18.86;39.12
67803;BME280;54601;51.378;-1.342;2022-11-15T00:46:01;98892.67;;;18.83;39.15
67803;BME280;54601;51.378;-1.342;2022-11-15T00:48:26;98885.34;;;18.87;39.13
67803;BME280;54601;51.378;-1.342;2022-11-15T00:50:51;98879.01;;;18.51;38.95
67803;BME280;54601;51.378;-1.342;2022-11-15T00:53:16;98871.20;;;18.99;39.05
67803;BME280;54601;51.378;-1.342;2022-11-15T00:55:42;98867.30;;;18.76;39.04
67803;BME280;54601;51.378;-1.342;2022-11-15T00:58:07;98863.13;;;19.01;39.02
67803;BME280;54601;51.378;-1.342;2022-11-15T01:00:32;98858.10;;;18.94;39.06
67803;BME280;54601;51.378;-1.342;2022-11-15T01:02:57;98855.32;;;18.48;39.01
67803;BME280;54601;51.378;-1.342;2022-11-15T01:05:23;98850.51;;;18.89;39.23
67803;BME280;54601;51.378;-1.342;2022-11-15T01:07:51;98844.09;;;18.79;39.09
67803;BME280;54601;51.378;-1.342;2022-11-15T01:10:13;98840.03;;;19.01;38.95
67803;BME280;54601;51.378;-1.342;2022-11-15T01:12:38;98827.44;;;18.76;39.08
67803;BME280;54601;51.378;-1.342;2022-11-15T01:15:04;98822.92;;;18.76;39.09
67803;BME280;54601;51.378;-1.342;2022-11-15T01:17:28;98828.35;;;18.99;39.12
67803;BME280;54601;51.378;-1.342;2022-11-15T01:19:53;98820.55;;;18.92;39.25
67803;BME280;54601;51.378;-1.342;2022-11-15T01:22:19;98823.32;;;18.86;39.32
67803;BME280;54601;51.378;-1.342;2022-11-15T01:24:44;98825.22;;;18.88;39.33
67803;BME280;54601;51.378;-1.342;2022-11-15T01:27:09;98816.04;;;18.91;39.36
67803;BME280;54601;51.378;-1.342;2022-11-15T01:29:35;98814.56;;;18.90;39.39
67803;BME280;54601;51.378;-1.342;2022-11-15T01:31:59;98809.04;;;18.96;39.34
67803;BME280;54601;51.378;-1.342;2022-11-15T01:34:24;98801.39;;;18.94;39.24
67803;BME280;54601;51.378;-1.342;2022-11-15T01:36:50;98790.62;;;18.70;39.44
67803;BME280;54601;51.378;-1.342;2022-11-15T01:39:15;98782.74;;;19.00;39.37
67803;BME280;54601;51.378;-1.342;2022-11-15T01:41:40;98780.76;;;18.92;39.48
67803;BME280;54601;51.378;-1.342;2022-11-15T01:46:33;98759.19;;;19.06;39.28
67803;BME280;54601;51.378;-1.342;2022-11-15T01:48:58;98757.26;;;18.48;39.41
67803;BME280;54601;51.378;-1.342;2022-11-15T01:51:23;98752.56;;;19.05;39.33
67803;BME280;54601;51.378;-1.342;2022-11-15T01:53:49;98742.77;;;18.87;39.28
67803;BME280;54601;51.378;-1.342;2022-11-15T01:56:19;98736.30;;;19.06;39.34
67803;BME280;54601;51.378;-1.342;2022-11-15T01:58:37;98732.20;;;19.09;39.35
67803;BME280;54601;51.378;-1.342;2022-11-15T02:01:01;98730.88;;;19.04;39.46
67803;BME280;54601;51.378;-1.342;2022-11-15T02:03:34;98729.11;;;19.01;39.51
67803;BME280;54601;51.378;-1.342;2022-11-15T02:05:53;98721.34;;;19.07;39.38
67803;BME280;54601;51.378;-1.342;2022-11-15T02:08:17;98715.31;;;19.17;39.30
67803;BME280;54601;51.378;-1.342;2022-11-15T02:10:42;98715.41;;;19.09;39.46
67803;BME280;54601;51.378;-1.342;2022-11-15T02:13:07;98716.44;;;19.21;39.21
67803;BME280;54601;51.378;-1.342;2022-11-15T02:15:38;98712.67;;;18.59;39.41
67803;BME280;54601;51.378;-1.342;2022-11-15T02:18:09;98704.53;;;18.69;39.28
67803;BME280;54601;51.378;-1.342;2022-11-15T02:20:32;98705.93;;;18.96;39.39
67803;BME280;54601;51.378;-1.342;2022-11-15T02:23:01;98696.23;;;19.07;39.25
67803;BME280;54601;51.378;-1.342;2022-11-15T02:25:29;98695.08;;;19.15;39.14
67803;BME280;54601;51.378;-1.342;2022-11-15T02:27:53;98691.18;;;19.12;39.22
67803;BME280;54601;51.378;-1.342;2022-11-15T02:32:33;98672.81;;;19.25;39.33
67803;BME280;54601;51.378;-1.342;2022-11-15T02:34:58;98665.14;;;19.20;39.44
67803;BME280;54601;51.378;-1.342;2022-11-15T02:37:25;98659.65;;;19.03;39.37
67803;BME280;54601;51.378;-1.342;2022-11-15T02:39:49;98660.43;;;19.07;39.23
67803;BME280;54601;51.378;-1.342;2022-11-15T02:42:14;98648.80;;;19.00;39.41
67803;BME280;54601;51.378;-1.342;2022-11-15T02:44:38;98641.51;;;19.11;39.22
67803;BME280;54601;51.378;-1.342;2022-11-15T02:47:02;98639.68;;;19.24;39.33
67803;BME280;54601;51.378;-1.342;2022-11-15T02:49:28;98636.60;;;19.40;39.15
67803;BME280;54601;51.378;-1.342;2022-11-15T02:51:51;98634.22;;;19.28;39.37
67803;BME280;54601;51.378;-1.342;2022-11-15T02:54:19;98621.95;;;19.37;39.22
67803;BME280;54601;51.378;-1.342;2022-11-15T02:56:41;98611.12;;;19.08;39.29
67803;BME280;54601;51.378;-1.342;2022-11-15T02:59:13;98613.72;;;19.20;39.13
67803;BME280;54601;51.378;-1.342;2022-11-15T03:01:41;98613.60;;;19.14;39.20
67803;BME280;54601;51.378;-1.342;2022-11-15T03:04:02;98608.77;;;19.38;39.28
67803;BME280;54601;51.378;-1.342;2022-11-15T03:06:26;98609.55;;;19.10;39.38
67803;BME280;54601;51.378;-1.342;2022-11-15T03:08:52;98607.09;;;19.13;39.35
67803;BME280;54601;51.378;-1.342;2022-11-15T03:11:13;98603.09;;;19.16;39.25
67803;BME280;54601;51.378;-1.342;2022-11-15T03:13:40;98606.13;;;18.91;39.16
67803;BME280;54601;51.378;-1.342;2022-11-15T03:16:05;98598.78;;;18.93;39.24
67803;BME280;54601;51.378;-1.342;2022-11-15T03:18:30;98594.28;;;19.43;39.22
67803;BME280;54601;51.378;-1.342;2022-11-15T03:20:53;98592.26;;;19.16;39.27
67803;BME280;54601;51.378;-1.342;2022-11-15T03:23:17;98589.79;;;19.18;39.27
67803;BME280;54601;51.378;-1.342;2022-11-15T03:25:48;98589.18;;;18.92;39.27
67803;BME280;54601;51.378;-1.342;2022-11-15T03:28:11;98588.21;;;19.41;39.25
67803;BME280;54601;51.378;-1.342;2022-11-15T03:30:35;98576.19;;;19.16;39.29
67803;BME280;54601;51.378;-1.342;2022-11-15T03:32:58;98570.14;;;19.15;39.32
67803;BME280;54601;51.378;-1.342;2022-11-15T03:35:24;98561.38;;;18.89;39.29
67803;BME280;54601;51.378;-1.342;2022-11-15T03:37:50;98549.29;;;19.47;39.08
67803;BME280;54601;51.378;-1.342;2022-11-15T03:40:13;98551.86;;;19.21;39.19
67803;BME280;54601;51.378;-1.342;2022-11-15T03:42:43;98534.11;;;19.39;39.27
67803;BME280;54601;51.378;-1.342;2022-11-15T03:45:10;98533.11;;;18.91;39.18
67803;BME280;54601;51.378;-1.342;2022-11-15T03:47:32;98529.04;;;18.87;39.27
67803;BME280;54601;51.378;-1.342;2022-11-15T03:49:57;98517.27;;;19.06;38.99
67803;BME280;54601;51.378;-1.342;2022-11-15T03:52:19;98511.93;;;19.24;39.13
67803;BME280;54601;51.378;-1.342;2022-11-15T03:54:50;98510.90;;;18.96;39.10
67803;BME280;54601;51.378;-1.342;2022-11-15T03:57:09;98504.27;;;19.18;39.16
67803;BME280;54601;51.378;-1.342;2022-11-15T03:59:34;98505.41;;;18.97;39.11
67803;BME280;54601;51.378;-1.342;2022-11-15T04:01:59;98497.39;;;19.01;39.03
67803;BME280;54601;51.378;-1.342;2022-11-15T04:04:24;98494.16;;;18.99;39.04
67803;BME280;54601;51.378;-1.342;2022-11-15T04:06:49;98488.89;;;19.02;39.04
67803;BME280;54601;51.378;-1.342;2022-11-15T04:09:14;98494.38;;;19.03;39.03
67803;BME280;54601;51.378;-1.342;2022-11-15T04:11:40;98483.63;;;19.08;38.91
67803;BME280;54601;51.378;-1.342;2022-11-15T04:14:05;98478.91;;;18.99;39.13
67803;BME280;54601;51.378;-1.342;2022-11-15T04:16:30;98468.04;;;19.02;39.05
67803;BME280;54601;51.378;-1.342;2022-11-15T04:18:55;98455.55;;;19.33;38.94
67803;BME280;54601;51.378;-1.342;2022-11-15T04:21:20;98442.34;;;19.48;39.04
67803;BME280;54601;51.378;-1.342;2022-11-15T04:23:45;98438.82;;;19.43;39.20
67803;BME280;54601;51.378;-1.342;2022-11-15T04:26:14;98446.18;;;18.96;39.19
67803;BME280;54601;51.378;-1.342;2022-11-15T04:28:36;98443.10;;;18.93;39.23
67803;BME280;54601;51.378;-1.342;2022-11-15T04:31:01;98447.83;;;19.19;39.26
67803;BME280;54601;51.378;-1.342;2022-11-15T04:33:26;98437.71;;;19.26;39.15
67803;BME280;54601;51.378;-1.342;2022-11-15T04:35:51;98441.04;;;19.07;39.04
67803;BME280;54601;51.378;-1.342;2022-11-15T04:38:16;98434.22;;;19.10;38.94
67803;BME280;54601;51.378;-1.342;2022-11-15T04:40:41;98431.27;;;19.33;39.00
67803;BME280;54601;51.378;-1.342;2022-11-15T04:43:06;98427.21;;;19.28;39.11
67803;BME280;54601;51.378;-1.342;2022-11-15T04:45:32;98425.40;;;19.01;39.11
67803;BME280;54601;51.378;-1.342;2022-11-15T04:47:57;98418.62;;;19.55;39.04
67803;BME280;54601;51.378;-1.342;2022-11-15T04:50:22;98415.55;;;19.53;39.05
67803;BME280;54601;51.378;-1.342;2022-11-15T04:52:51;98412.01;;;18.98;39.17
67803;BME280;54601;51.378;-1.342;2022-11-15T04:55:13;98405.16;;;19.41;39.23
67803;BME280;54601;51.378;-1.342;2022-11-15T04:57:37;98401.11;;;19.27;39.16
67803;BME280;54601;51.378;-1.342;2022-11-15T05:00:05;98397.56;;;19.48;39.18
67803;BME280;54601;51.378;-1.342;2022-11-15T05:02:27;98391.61;;;19.06;39.09
67803;BME280;54601;51.378;-1.342;2022-11-15T05:04:53;98380.78;;;19.41;38.96
67803;BME280;54601;51.378;-1.342;2022-11-15T05:07:18;98378.95;;;19.32;39.16
67803;BME280;54601;51.378;-1.342;2022-11-15T05:09:43;98376.21;;;19.31;39.12
67803;BME280;54601;51.378;-1.342;2022-11-15T05:12:08;98365.80;;;18.97;39.24
67803;BME280;54601;51.378;-1.342;2022-11-15T05:14:33;98373.83;;;18.99;39.23
67803;BME280;54601;51.378;-1.342;2022-11-15T05:16:59;98359.86;;;19.07;39.09
67803;BME280;54601;51.378;-1.342;2022-11-15T05:19:24;98356.99;;;19.09;39.08
67803;BME280;54601;51.378;-1.342;2022-11-15T05:21:49;98351.11;;;19.06;39.11
67803;BME280;54601;51.378;-1.342;2022-11-15T05:24:14;98357.05;;;19.31;39.18
67803;BME280;54601;51.378;-1.342;2022-11-15T05:26:40;98335.70;;;18.98;39.32
67803;BME280;54601;51.378;-1.342;2022-11-15T05:29:04;98332.41;;;19.29;39.23
67803;BME280;54601;51.378;-1.342;2022-11-15T05:31:29;98319.02;;;19.30;39.22
67803;BME280;54601;51.378;-1.342;2022-11-15T05:33:55;98319.30;;;19.27;39.28
67803;BME280;54601;51.378;-1.342;2022-11-15T05:36:25;98322.62;;;19.02;39.27
67803;BME280;54601;51.378;-1.342;2022-11-15T05:38:45;98318.83;;;19.03;39.20
67803;BME280;54601;51.378;-1.342;2022-11-15T05:41:10;98315.73;;;19.28;39.26
67803;BME280;54601;51.378;-1.342;2022-11-15T05:43:37;98315.34;;;19.05;39.23
67803;BME280;54601;51.378;-1.342;2022-11-15T05:46:01;98307.96;;;19.06;39.22
67803;BME280;54601;51.378;-1.342;2022-11-15T05:48:26;98310.76;;;19.27;39.28
67803;BME280;54601;51.378;-1.342;2022-11-15T05:50:50;98297.98;;;19.48;39.30
67803;BME280;54601;51.378;-1.342;2022-11-15T05:53:18;98298.90;;;18.98;39.36
67803;BME280;54601;51.378;-1.342;2022-11-15T05:55:41;98288.92;;;19.03;39.33
67803;BME280;54601;51.378;-1.342;2022-11-15T05:58:06;98286.66;;;19.11;39.15
67803;BME280;54601;51.378;-1.342;2022-11-15T06:00:31;98286.63;;;19.27;39.38
67803;BME280;54601;51.378;-1.342;2022-11-15T06:02:56;98286.93;;;18.95;39.43
67803;BME280;54601;51.378;-1.342;2022-11-15T06:05:21;98279.69;;;19.00;39.41
67803;BME280;54601;51.378;-1.342;2022-11-15T06:07:46;98284.60;;;19.23;39.47
67803;BME280;54601;51.378;-1.342;2022-11-15T06:10:11;98277.67;;;19.00;39.41
67803;BME280;54601;51.378;-1.342;2022-11-15T06:12:37;98278.48;;;19.02;39.38
67803;BME280;54601;51.378;-1.342;2022-11-15T06:15:02;98271.83;;;19.05;39.36
67803;BME280;54601;51.378;-1.342;2022-11-15T06:17:27;98268.77;;;19.02;39.37
67803;BME280;54601;51.378;-1.342;2022-11-15T06:19:52;98266.96;;;19.31;39.38
67803;BME280;54601;51.378;-1.342;2022-11-15T06:22:17;98263.82;;;19.06;39.39
67803;BME280;54601;51.378;-1.342;2022-11-15T06:24:42;98254.51;;;19.24;39.53
67803;BME280;54601;51.378;-1.342;2022-11-15T06:27:07;98252.49;;;19.52;39.39
67803;BME280;54601;51.378;-1.342;2022-11-15T06:29:32;98248.87;;;19.36;39.34
67803;BME280;54601;51.378;-1.342;2022-11-15T06:31:57;98248.82;;;19.04;39.42
67803;BME280;54601;51.378;-1.342;2022-11-15T06:34:23;98246.82;;;18.95;39.55
67803;BME280;54601;51.378;-1.342;2022-11-15T06:36:48;98238.78;;;18.99;39.56
67803;BME280;54601;51.378;-1.342;2022-11-15T06:39:13;98237.18;;;19.05;39.36
67803;BME280;54601;51.378;-1.342;2022-11-15T06:41:38;98233.73;;;18.95;39.61
67803;BME280;54601;51.378;-1.342;2022-11-15T06:44:03;98222.34;;;19.44;39.61
67803;BME280;54601;51.378;-1.342;2022-11-15T06:46:28;98218.74;;;19.00;39.57
67803;BME280;54601;51.378;-1.342;2022-11-15T06:48:54;98218.20;;;19.23;39.63
67803;BME280;54601;51.378;-1.342;2022-11-15T06:51:18;98221.68;;;19.43;39.66
67803;BME280;54601;51.378;-1.342;2022-11-15T06:53:44;98207.47;;;18.06;38.96
67803;BME280;54601;51.378;-1.342;2022-11-15T06:56:09;98207.70;;;19.70;38.52
67803;BME280;54601;51.378;-1.342;2022-11-15T06:58:34;98206.98;;;19.44;38.89
67803;BME280;54601;51.378;-1.342;2022-11-15T07:01:00;98204.63;;;19.15;39.34
67803;BME280;54601;51.378;-1.342;2022-11-15T07:03:24;98203.77;;;19.14;39.36
67803;BME280;54601;51.378;-1.342;2022-11-15T07:05:52;98198.72;;;19.49;39.62
67803;BME280;54601;51.378;-1.342;2022-11-15T07:08:14;98192.18;;;19.03;39.57
67803;BME280;54601;51.378;-1.342;2022-11-15T07:10:39;98189.61;;;18.97;39.63
67803;BME280;54601;51.378;-1.342;2022-11-15T07:13:05;98187.09;;;19.48;39.67
67803;BME280;54601;51.378;-1.342;2022-11-15T07:15:30;98184.62;;;19.47;39.72
67803;BME280;54601;51.378;-1.342;2022-11-15T07:17:55;98180.61;;;19.25;39.68
67803;BME280;54601;51.378;-1.342;2022-11-15T07:20:20;98181.36;;;18.90;39.80
67803;BME280;54601;51.378;-1.342;2022-11-15T07:22:45;98178.48;;;19.04;39.66
67803;BME280;54601;51.378;-1.342;2022-11-15T07:25:11;98171.46;;;18.99;39.70
67803;BME280;54601;51.378;-1.342;2022-11-15T07:27:35;98171.92;;;19.02;39.70
67803;BME280;54601;51.378;-1.342;2022-11-15T07:30:01;98170.99;;;19.26;39.73
67803;BME280;54601;51.378;-1.342;2022-11-15T07:32:26;98172.50;;;19.22;39.80
67803;BME280;54601;51.378;-1.342;2022-11-15T07:34:51;98170.45;;;18.97;39.77
67803;BME280;54601;51.378;-1.342;2022-11-15T07:37:16;98158.85;;;18.97;39.77
67803;BME280;54601;51.378;-1.342;2022-11-15T07:39:41;98157.13;;;18.99;39.74
67803;BME280;54601;51.378;-1.342;2022-11-15T07:42:06;98158.97;;;19.20;39.86
67803;BME280;54601;51.378;-1.342;2022-11-15T07:44:31;98148.92;;;18.94;39.88
67803;BME280;54601;51.378;-1.342;2022-11-15T07:46:56;98155.40;;;19.00;39.74
67803;BME280;54601;51.378;-1.342;2022-11-15T07:49:21;98140.94;;;19.23;39.84
67803;BME280;54601;51.378;-1.342;2022-11-15T07:51:47;98139.51;;;19.26;39.81
67803;BME280;54601;51.378;-1.342;2022-11-15T07:54:12;98134.11;;;19.29;39.74
67803;BME280;54601;51.378;-1.342;2022-11-15T07:56:37;98124.94;;;19.49;39.79
67803;BME280;54601;51.378;-1.342;2022-11-15T07:59:02;98132.52;;;18.99;39.84
67803;BME280;54601;51.378;-1.342;2022-11-15T08:01:27;98122.60;;;19.42;39.91
67803;BME280;54601;51.378;-1.342;2022-11-15T08:03:52;98122.79;;;19.42;39.94
67803;BME280;54601;51.378;-1.342;2022-11-15T08:06:18;98111.74;;;19.19;39.96
67803;BME280;54601;51.378;-1.342;2022-11-15T08:08:43;98111.89;;;19.09;39.72
67803;BME280;54601;51.378;-1.342;2022-11-15T08:11:08;98117.77;;;19.09;39.72
67803;BME280;54601;51.378;-1.342;2022-11-15T08:13:33;98113.62;;;19.64;39.67
67803;BME280;54601;51.378;-1.342;2022-11-15T08:15:58;98116.21;;;19.11;39.68
67803;BME280;54601;51.378;-1.342;2022-11-15T08:18:24;98109.39;;;19.54;39.77
67803;BME280;54601;51.378;-1.342;2022-11-15T08:20:49;98106.70;;;19.07;39.77
67803;BME280;54601;51.378;-1.342;2022-11-15T08:23:14;98107.72;;;19.32;39.81
67803;BME280;54601;51.378;-1.342;2022-11-15T08:25:39;98104.66;;;19.00;39.86
67803;BME280;54601;51.378;-1.342;2022-11-15T08:28:06;98096.09;;;19.01;39.90
67803;BME280;54601;51.378;-1.342;2022-11-15T08:30:30;98094.48;;;19.52;39.85
67803;BME280;54601;51.378;-1.342;2022-11-15T08:32:57;98085.21;;;19.01;39.90
67803;BME280;54601;51.378;-1.342;2022-11-15T08:35:20;98084.48;;;19.14;39.72
67803;BME280;54601;51.378;-1.342;2022-11-15T08:37:45;98085.19;;;19.32;39.79
67803;BME280;54601;51.378;-1.342;2022-11-15T08:40:10;98077.32;;;19.27;39.86
67803;BME280;54601;51.378;-1.342;2022-11-15T08:42:36;98076.36;;;19.22;39.95
67803;BME280;54601;51.378;-1.342;2022-11-15T08:45:00;98073.85;;;19.14;40.12
67803;BME280;54601;51.378;-1.342;2022-11-15T08:47:25;98063.73;;;18.91;40.02
67803;BME280;54601;51.378;-1.342;2022-11-15T08:49:50;98064.99;;;19.13;40.15
67803;BME280;54601;51.378;-1.342;2022-11-15T08:52:16;98061.68;;;19.14;40.09
67803;BME280;54601;51.378;-1.342;2022-11-15T08:54:41;98062.28;;;19.40;40.06
67803;BME280;54601;51.378;-1.342;2022-11-15T08:57:06;98064.01;;;19.25;39.92
67803;BME280;54601;51.378;-1.342;2022-11-15T08:59:31;98053.27;;;19.13;40.11
67803;BME280;54601;51.378;-1.342;2022-11-15T09:01:56;98051.27;;;18.75;40.30
67803;BME280;54601;51.378;-1.342;2022-11-15T09:04:21;98045.80;;;18.85;40.12
67803;BME280;54601;51.378;-1.342;2022-11-15T09:06:46;98045.02;;;19.20;40.04
67803;BME280;54601;51.378;-1.342;2022-11-15T09:09:12;98041.29;;;18.89;40.03
67803;BME280;54601;51.378;-1.342;2022-11-15T09:11:37;98042.22;;;19.36;40.09
67803;BME280;54601;51.378;-1.342;2022-11-15T09:14:02;98030.93;;;19.37;40.05
67803;BME280;54601;51.378;-1.342;2022-11-15T09:16:27;98025.70;;;18.75;40.29
67803;BME280;54601;51.378;-1.342;2022-11-15T09:18:52;98020.95;;;19.30;40.17
67803;BME280;54601;51.378;-1.342;2022-11-15T09:21:17;98016.09;;;19.17;40.06
67803;BME280;54601;51.378;-1.342;2022-11-15T09:23:43;98017.08;;;18.82;40.19
67803;BME280;54601;51.378;-1.342;2022-11-15T09:26:08;98006.69;;;19.07;40.23
67803;BME280;54601;51.378;-1.342;2022-11-15T09:28:33;98011.93;;;18.91;40.03
67803;BME280;54601;51.378;-1.342;2022-11-15T09:30:59;98010.44;;;19.38;40.08
67803;BME280;54601;51.378;-1.342;2022-11-15T09:33:23;97998.50;;;19.14;40.10
67803;BME280;54601;51.378;-1.342;2022-11-15T09:35:48;97992.40;;;19.35;40.15
67803;BME280;54601;51.378;-1.342;2022-11-15T09:38:14;97990.70;;;19.14;40.09
67803;BME280;54601;51.378;-1.342;2022-11-15T09:40:39;97983.12;;;19.11;40.20
67803;BME280;54601;51.378;-1.342;2022-11-15T09:45:34;97972.72;;;18.94;40.47
67803;BME280;54601;51.378;-1.342;2022-11-15T09:48:08;97972.36;;;19.16;40.13
67803;BME280;54601;51.378;-1.342;2022-11-15T09:50:28;97970.59;;;19.20;40.06
67803;BME280;54601;51.378;-1.342;2022-11-15T09:52:45;97966.52;;;18.84;40.23
67803;BME280;54601;51.378;-1.342;2022-11-15T09:55:11;97957.84;;;18.92;40.09
67803;BME280;54601;51.378;-1.342;2022-11-15T09:57:39;97955.77;;;19.13;40.18
67803;BME280;54601;51.378;-1.342;2022-11-15T10:00:09;97954.64;;;18.87;40.17
67803;BME280;54601;51.378;-1.342;2022-11-15T10:02:34;97952.26;;;19.38;40.35
67803;BME280;54601;51.378;-1.342;2022-11-15T10:04:51;97949.17;;;19.14;41.26
67803;BME280;54601;51.378;-1.342;2022-11-15T10:07:20;97940.31;;;19.19;41.21
67803;BME280;54601;51.378;-1.342;2022-11-15T10:09:45;97929.92;;;19.45;41.18
67803;BME280;54601;51.378;-1.342;2022-11-15T10:12:07;97929.57;;;19.03;41.19
67803;BME280;54601;51.378;-1.342;2022-11-15T10:14:31;97922.26;;;19.39;40.96
67803;BME280;54601;51.378;-1.342;2022-11-15T10:17:06;97921.95;;;19.11;41.16
67803;BME280;54601;51.378;-1.342;2022-11-15T10:19:26;97910.59;;;19.26;40.90
67803;BME280;54601;51.378;-1.342;2022-11-15T10:21:52;97908.18;;;19.16;40.95
67803;BME280;54601;51.378;-1.342;2022-11-15T10:24:12;97916.01;;;19.11;40.95
67803;BME280;54601;51.378;-1.342;2022-11-15T10:26:37;97902.65;;;19.21;40.79
67803;BME280;54601;51.378;-1.342;2022-11-15T10:29:02;97895.66;;;19.18;40.85
67803;BME280;54601;51.378;-1.342;2022-11-15T10:31:28;97893.35;;;19.18;40.80
67803;BME280;54601;51.378;-1.342;2022-11-15T10:34:02;97887.64;;;19.13;40.84
67803;BME280;54601;51.378;-1.342;2022-11-15T10:36:21;97881.09;;;19.26;40.92
67803;BME280;54601;51.378;-1.342;2022-11-15T10:38:51;97872.24;;;19.35;41.09
67803;BME280;54601;51.378;-1.342;2022-11-15T10:41:08;97869.34;;;19.27;41.35
67803;BME280;54601;51.378;-1.342;2022-11-15T10:43:32;97864.68;;;19.52;41.81
67803;BME280;54601;51.378;-1.342;2022-11-15T10:48:24;97863.81;;;19.38;41.88
67803;BME280;54601;51.378;-1.342;2022-11-15T10:50:49;97864.43;;;19.27;41.77
67803;BME280;54601;51.378;-1.342;2022-11-15T10:53:20;97852.65;;;19.40;41.83
67803;BME280;54601;51.378;-1.342;2022-11-15T10:55:40;97852.12;;;19.40;41.78
67803;BME280;54601;51.378;-1.342;2022-11-15T10:58:06;97849.80;;;19.34;41.84
67803;BME280;54601;51.378;-1.342;2022-11-15T11:00:33;97841.82;;;19.28;41.91
67803;BME280;54601;51.378;-1.342;2022-11-15T11:02:58;97838.97;;;19.35;41.70
67803;BME280;54601;51.378;-1.342;2022-11-15T11:05:26;97818.10;;;19.41;41.60
67803;BME280;54601;51.378;-1.342;2022-11-15T11:07:54;97812.51;;;19.44;41.67
67803;BME280;54601;51.378;-1.342;2022-11-15T11:10:17;97804.53;;;19.45;41.67
67803;BME280;54601;51.378;-1.342;2022-11-15T11:12:34;97794.53;;;19.36;41.61
67803;BME280;54601;51.378;-1.342;2022-11-15T11:15:01;97796.37;;;19.72;41.46
67803;BME280;54601;51.378;-1.342;2022-11-15T11:17:32;97790.42;;;19.47;41.39
67803;BME280;54601;51.378;-1.342;2022-11-15T11:19:59;97783.19;;;19.47;41.41
67803;BME280;54601;51.378;-1.342;2022-11-15T11:22:22;97774.65;;;19.25;41.36
67803;BME280;54601;51.378;-1.342;2022-11-15T11:24:45;97768.34;;;19.51;41.27
67803;BME280;54601;51.378;-1.342;2022-11-15T11:27:18;97761.49;;;19.44;41.38
67803;BME280;54601;51.378;-1.342;2022-11-15T11:29:41;97747.08;;;19.50;41.27
67803;BME280;54601;51.378;-1.342;2022-11-15T11:32:01;97743.39;;;19.50;41.34
67803;BME280;54601;51.378;-1.342;2022-11-15T11:34:29;97744.47;;;19.55;41.22
67803;BME280;54601;51.378;-1.342;2022-11-15T11:36:49;97739.68;;;19.54;41.17
67803;BME280;54601;51.378;-1.342;2022-11-15T11:39:21;97739.77;;;19.43;41.36
67803;BME280;54601;51.378;-1.342;2022-11-15T11:41:46;97740.14;;;19.50;41.21
67803;BME280;54601;51.378;-1.342;2022-11-15T11:44:10;97746.59;;;19.54;41.17
67803;BME280;54601;51.378;-1.342;2022-11-15T11:46:38;97749.40;;;19.55;41.26
67803;BME280;54601;51.378;-1.342;2022-11-15T11:48:55;97753.35;;;19.54;41.11
67803;BME280;54601;51.378;-1.342;2022-11-15T11:51:20;97736.76;;;19.48;41.15
67803;BME280;54601;51.378;-1.342;2022-11-15T11:53:45;97746.35;;;19.55;41.06
67803;BME280;54601;51.378;-1.342;2022-11-15T11:56:13;97754.18;;;19.55;41.13
67803;BME280;54601;51.378;-1.342;2022-11-15T11:58:35;97747.09;;;19.54;41.16
67803;BME280;54601;51.378;-1.342;2022-11-15T12:00:59;97746.68;;;19.61;41.16
67803;BME280;54601;51.378;-1.342;2022-11-15T12:03:27;97750.66;;;19.52;41.19
67803;BME280;54601;51.378;-1.342;2022-11-15T12:05:49;97753.90;;;19.62;41.09
67803;BME280;54601;51.378;-1.342;2022-11-15T12:08:26;97764.92;;;19.59;41.18
67803;BME280;54601;51.378;-1.342;2022-11-15T12:10:37;97752.29;;;19.65;41.11
67803;BME280;54601;51.378;-1.342;2022-11-15T12:13:06;97768.68;;;19.71;41.07
67803;BME280;54601;51.378;-1.342;2022-11-15T12:15:29;97773.69;;;20.19;41.01
67803;BME280;54601;51.378;-1.342;2022-11-15T12:17:52;97768.07;;;19.72;40.99
67803;BME280;54601;51.378;-1.342;2022-11-15T12:20:19;97767.20;;;19.69;41.02
67803;BME280;54601;51.378;-1.342;2022-11-15T12:22:44;97773.29;;;19.76;40.94
67803;BME280;54601;51.378;-1.342;2022-11-15T12:25:14;97775.09;;;19.78;40.83
67803;BME280;54601;51.378;-1.342;2022-11-15T12:27:36;97781.55;;;19.75;40.94
67803;BME280;54601;51.378;-1.342;2022-11-15T12:30:00;97784.17;;;19.65;41.07
67803;BME280;54601;51.378;-1.342;2022-11-15T12:32:26;97783.43;;;19.79;40.82
67803;BME280;54601;51.378;-1.342;2022-11-15T12:34:49;97785.92;;;19.82;40.82
67803;BME280;54601;51.378;-1.342;2022-11-15T12:46:59;97809.22;;;19.88;40.68
67803;BME280;54601;51.378;-1.342;2022-11-15T12:56:34;97819.32;;;19.99;40.43
67803;BME280;54601;51.378;-1.342;2022-11-15T12:59:00;97826.45;;;19.67;40.58
67803;BME280;54601;51.378;-1.342;2022-11-15T13:08:46;97835.45;;;19.54;40.64
67803;BME280;54601;51.378;-1.342;2022-11-15T13:15:56;97846.74;;;20.00;40.24